sensor_id;sensor_type;location;lat;lon;timestamp;P1;durP1;ratioP1;P2;durP2;ratioP2
14933;SDS011;7560;51.364;12.384;2023-04-07T00:03:30;16.67;;;12.95;;
14933;SDS011;7560;51.364;12.384;2023-04-07T00:08:32;19.20;;;12.73;;
14933;SDS011;7560;51.364;12.384;2023-04-07T00:13:34;17.98;;;12.70;;
14933;SDS011;7560;51.364;12.384;2023-04-07T00:18:35;17.70;;;12.05;;
14933;SDS011;7560;51.364;12.384;2023-04-07T00:23:37;17.30;;;12.00;;
14933;SDS011;7560;51.364;12.384;2023-04-07T00:28:39;17.88;;;11.88;;
14933;SDS011;7560;51.364;12.384;2023-04-07T00:33:41;16.08;;;11.75;;
14933;SDS011;7560;51.364;12.384;2023-04-07T00:38:42;17.33;;;11.63;;
14933;SDS011;7560;51.364;12.384;2023-04-07T00:43:44;19.77;;;12.75;;
14933;SDS011;7560;51.364;12.384;2023-04-07T00:48:46;17.73;;;12.18;;
14933;SDS011;7560;51.364;12.384;2023-04-07T00:53:48;19.23;;;12.65;;
14933;SDS011;7560;51.364;12.384;2023-04-07T00:58:50;19.38;;;12.52;;
14933;SDS011;7560;51.364;12.384;2023-04-07T01:03:53;18.83;;;12.48;;
14933;SDS011;7560;51.364;12.384;2023-04-07T01:09:04;22.63;;;12.50;;
14933;SDS011;7560;51.364;12.384;2023-04-07T01:14:11;19.70;;;12.50;;
14933;SDS011;7560;51.364;12.384;2023-04-07T01:24:56;18.55;;;12.20;;
14933;SDS011;7560;51.364;12.384;2023-04-07T01:30:10;16.65;;;11.35;;
14933;SDS011;7560;51.364;12.384;2023-04-07T01:35:13;20.05;;;11.55;;
14933;SDS011;7560;51.364;12.384;2023-04-07T01:40:16;19.02;;;11.98;;
14933;SDS011;7560;51.364;12.384;2023-04-07T01:45:19;18.02;;;12.00;;
14933;SDS011;7560;51.364;12.384;2023-04-07T01:50:21;17.45;;;11.82;;
14933;SDS011;7560;51.364;12.384;2023-04-07T01:55:25;17.90;;;11.60;;
14933;SDS011;7560;51.364;12.384;2023-04-07T02:00:26;18.85;;;11.65;;
14933;SDS011;7560;51.364;12.384;2023-04-07T02:05:28;16.95;;;10.90;;
14933;SDS011;7560;51.364;12.384;2023-04-07T02:10:32;15.95;;;11.40;;
14933;SDS011;7560;51.364;12.384;2023-04-07T02:15:35;17.13;;;10.88;;
14933;SDS011;7560;51.364;12.384;2023-04-07T02:20:38;16.30;;;10.77;;
14933;SDS011;7560;51.364;12.384;2023-04-07T02:25:41;14.32;;;10.15;;
14933;SDS011;7560;51.364;12.384;2023-04-07T02:30:43;16.83;;;10.55;;
14933;SDS011;7560;51.364;12.384;2023-04-07T02:35:44;15.02;;;10.90;;
14933;SDS011;7560;51.364;12.384;2023-04-07T02:40:46;14.88;;;10.23;;
14933;SDS011;7560;51.364;12.384;2023-04-07T02:45:48;15.98;;;11.20;;
14933;SDS011;7560;51.364;12.384;2023-04-07T02:50:50;14.38;;;10.25;;
14933;SDS011;7560;51.364;12.384;2023-04-07T02:55:51;16.17;;;10.30;;
14933;SDS011;7560;51.364;12.384;2023-04-07T03:00:53;14.65;;;9.85;;
14933;SDS011;7560;51.364;12.384;2023-04-07T03:05:55;16.25;;;9.98;;
14933;SDS011;7560;51.364;12.384;2023-04-07T03:10:57;14.07;;;9.48;;
14933;SDS011;7560;51.364;12.384;2023-04-07T03:15:59;13.32;;;9.23;;
14933;SDS011;7560;51.364;12.384;2023-04-07T03:21:01;14.57;;;9.55;;
14933;SDS011;7560;51.364;12.384;2023-04-07T03:26:03;14.80;;;9.70;;
14933;SDS011;7560;51.364;12.384;2023-04-07T03:31:05;14.05;;;9.73;;
14933;SDS011;7560;51.364;12.384;2023-04-07T03:36:07;13.60;;;9.15;;
14933;SDS011;7560;51.364;12.384;2023-04-07T03:41:09;15.63;;;9.20;;
14933;SDS011;7560;51.364;12.384;2023-04-07T03:46:10;14.27;;;8.95;;
14933;SDS011;7560;51.364;12.384;2023-04-07T03:51:12;12.27;;;8.85;;
14933;SDS011;7560;51.364;12.384;2023-04-07T03:56:14;12.88;;;9.00;;
14933;SDS011;7560;51.364;12.384;2023-04-07T04:01:16;12.27;;;8.27;;
14933;SDS011;7560;51.364;12.384;2023-04-07T04:06:18;11.88;;;8.68;;
14933;SDS011;7560;51.364;12.384;2023-04-07T04:11:19;13.15;;;8.70;;
14933;SDS011;7560;51.364;12.384;2023-04-07T04:16:22;12.82;;;8.77;;
14933;SDS011;7560;51.364;12.384;2023-04-07T04:21:24;11.57;;;8.70;;
14933;SDS011;7560;51.364;12.384;2023-04-07T04:26:27;12.85;;;8.68;;
14933;SDS011;7560;51.364;12.384;2023-04-07T04:31:29;11.85;;;8.27;;
14933;SDS011;7560;51.364;12.384;2023-04-07T04:36:31;10.77;;;8.77;;
14933;SDS011;7560;51.364;12.384;2023-04-07T04:41:33;13.25;;;8.77;;
14933;SDS011;7560;51.364;12.384;2023-04-07T04:46:35;13.40;;;9.43;;
14933;SDS011;7560;51.364;12.384;2023-04-07T04:51:37;11.50;;;8.68;;
14933;SDS011;7560;51.364;12.384;2023-04-07T04:56:38;11.52;;;8.90;;
14933;SDS011;7560;51.364;12.384;2023-04-07T05:01:40;13.23;;;9.13;;
14933;SDS011;7560;51.364;12.384;2023-04-07T05:06:42;13.23;;;9.30;;
14933;SDS011;7560;51.364;12.384;2023-04-07T05:11:44;15.55;;;10.15;;
14933;SDS011;7560;51.364;12.384;2023-04-07T05:16:46;15.85;;;9.57;;
14933;SDS011;7560;51.364;12.384;2023-04-07T05:21:48;15.40;;;9.32;;
14933;SDS011;7560;51.364;12.384;2023-04-07T05:26:50;14.02;;;9.75;;
14933;SDS011;7560;51.364;12.384;2023-04-07T05:31:52;15.25;;;9.93;;
14933;SDS011;7560;51.364;12.384;2023-04-07T05:36:54;13.65;;;9.63;;
14933;SDS011;7560;51.364;12.384;2023-04-07T05:41:55;17.10;;;10.50;;
14933;SDS011;7560;51.364;12.384;2023-04-07T05:46:58;14.88;;;9.95;;
14933;SDS011;7560;51.364;12.384;2023-04-07T05:51:59;13.48;;;9.52;;
14933;SDS011;7560;51.364;12.384;2023-04-07T05:57:03;13.52;;;9.88;;
14933;SDS011;7560;51.364;12.384;2023-04-07T06:02:05;16.63;;;10.05;;
14933;SDS011;7560;51.364;12.384;2023-04-07T06:07:08;14.43;;;10.07;;
14933;SDS011;7560;51.364;12.384;2023-04-07T06:12:09;15.32;;;10.73;;
14933;SDS011;7560;51.364;12.384;2023-04-07T06:17:12;15.13;;;10.30;;
14933;SDS011;7560;51.364;12.384;2023-04-07T06:22:14;14.98;;;10.73;;
14933;SDS011;7560;51.364;12.384;2023-04-07T06:27:16;19.25;;;11.90;;
14933;SDS011;7560;51.364;12.384;2023-04-07T06:32:18;15.80;;;11.75;;
14933;SDS011;7560;51.364;12.384;2023-04-07T06:37:20;16.65;;;11.43;;
14933;SDS011;7560;51.364;12.384;2023-04-07T06:42:24;15.45;;;11.40;;
14933;SDS011;7560;51.364;12.384;2023-04-07T06:47:26;17.05;;;11.77;;
14933;SDS011;7560;51.364;12.384;2023-04-07T06:52:28;18.35;;;12.20;;
14933;SDS011;7560;51.364;12.384;2023-04-07T06:57:30;15.77;;;11.88;;
14933;SDS011;7560;51.364;12.384;2023-04-07T07:02:32;17.25;;;11.68;;
14933;SDS011;7560;51.364;12.384;2023-04-07T07:07:34;18.95;;;11.80;;
14933;SDS011;7560;51.364;12.384;2023-04-07T07:12:36;15.60;;;11.30;;
14933;SDS011;7560;51.364;12.384;2023-04-07T07:17:37;16.05;;;11.32;;
14933;SDS011;7560;51.364;12.384;2023-04-07T07:22:39;15.32;;;11.02;;
14933;SDS011;7560;51.364;12.384;2023-04-07T07:27:41;16.58;;;11.32;;
14933;SDS011;7560;51.364;12.384;2023-04-07T07:32:43;14.50;;;10.77;;
14933;SDS011;7560;51.364;12.384;2023-04-07T07:37:45;14.27;;;10.48;;
14933;SDS011;7560;51.364;12.384;2023-04-07T07:42:47;15.02;;;10.80;;
14933;SDS011;7560;51.364;12.384;2023-04-07T07:47:49;13.35;;;10.35;;
14933;SDS011;7560;51.364;12.384;2023-04-07T07:52:51;13.93;;;9.63;;
14933;SDS011;7560;51.364;12.384;2023-04-07T07:57:53;13.60;;;9.68;;
14933;SDS011;7560;51.364;12.384;2023-04-07T08:02:54;12.70;;;9.35;;
14933;SDS011;7560;51.364;12.384;2023-04-07T08:07:56;13.77;;;9.63;;
14933;SDS011;7560;51.364;12.384;2023-04-07T08:12:58;15.88;;;9.50;;
14933;SDS011;7560;51.364;12.384;2023-04-07T08:18:00;10.10;;;8.32;;
14933;SDS011;7560;51.364;12.384;2023-04-07T08:23:04;11.48;;;7.68;;
14933;SDS011;7560;51.364;12.384;2023-04-07T08:28:06;11.50;;;7.97;;
14933;SDS011;7560;51.364;12.384;2023-04-07T08:33:08;13.32;;;8.32;;
14933;SDS011;7560;51.364;12.384;2023-04-07T08:38:10;12.52;;;8.45;;
14933;SDS011;7560;51.364;12.384;2023-04-07T08:43:11;13.02;;;8.93;;
14933;SDS011;7560;51.364;12.384;2023-04-07T08:48:16;14.30;;;9.57;;
14933;SDS011;7560;51.364;12.384;2023-04-07T08:53:22;12.73;;;8.88;;
14933;SDS011;7560;51.364;12.384;2023-04-07T08:58:29;13.50;;;9.25;;
14933;SDS011;7560;51.364;12.384;2023-04-07T09:03:31;11.32;;;8.63;;
14933;SDS011;7560;51.364;12.384;2023-04-07T09:08:34;12.02;;;8.68;;
14933;SDS011;7560;51.364;12.384;2023-04-07T09:13:36;13.23;;;7.85;;
14933;SDS011;7560;51.364;12.384;2023-04-07T09:18:38;12.73;;;8.68;;
14933;SDS011;7560;51.364;12.384;2023-04-07T09:23:40;10.38;;;7.85;;
14933;SDS011;7560;51.364;12.384;2023-04-07T09:28:44;13.85;;;8.52;;
14933;SDS011;7560;51.364;12.384;2023-04-07T09:33:47;9.52;;;7.10;;
14933;SDS011;7560;51.364;12.384;2023-04-07T09:38:50;9.27;;;7.72;;
14933;SDS011;7560;51.364;12.384;2023-04-07T09:43:55;9.50;;;7.68;;
14933;SDS011;7560;51.364;12.384;2023-04-07T09:49:01;11.82;;;8.43;;
14933;SDS011;7560;51.364;12.384;2023-04-07T09:54:06;14.13;;;9.73;;
14933;SDS011;7560;51.364;12.384;2023-04-07T09:59:08;11.75;;;9.18;;
14933;SDS011;7560;51.364;12.384;2023-04-07T10:04:11;12.27;;;9.35;;
14933;SDS011;7560;51.364;12.384;2023-04-07T10:09:13;13.30;;;9.63;;
14933;SDS011;7560;51.364;12.384;2023-04-07T10:14:15;11.40;;;9.05;;
14933;SDS011;7560;51.364;12.384;2023-04-07T10:19:18;13.30;;;9.30;;
14933;SDS011;7560;51.364;12.384;2023-04-07T10:24:34;14.15;;;9.13;;
14933;SDS011;7560;51.364;12.384;2023-04-07T10:29:54;11.38;;;8.60;;
14933;SDS011;7560;51.364;12.384;2023-04-07T10:35:00;13.05;;;8.32;;
14933;SDS011;7560;51.364;12.384;2023-04-07T10:56:08;11.20;;;8.10;;
14933;SDS011;7560;51.364;12.384;2023-04-07T11:06:15;12.63;;;8.23;;
14933;SDS011;7560;51.364;12.384;2023-04-07T11:11:33;12.45;;;8.30;;
14933;SDS011;7560;51.364;12.384;2023-04-07T11:16:40;11.43;;;8.15;;
14933;SDS011;7560;51.364;12.384;2023-04-07T11:21:43;14.32;;;8.57;;
14933;SDS011;7560;51.364;12.384;2023-04-07T11:26:46;11.50;;;8.40;;
14933;SDS011;7560;51.364;12.384;2023-04-07T11:31:50;10.63;;;8.02;;
14933;SDS011;7560;51.364;12.384;2023-04-07T11:36:52;11.07;;;7.35;;
14933;SDS011;7560;51.364;12.384;2023-04-07T11:41:54;10.90;;;8.13;;
14933;SDS011;7560;51.364;12.384;2023-04-07T11:47:00;11.13;;;8.00;;
14933;SDS011;7560;51.364;12.384;2023-04-07T11:52:04;10.95;;;7.15;;
14933;SDS011;7560;51.364;12.384;2023-04-07T11:57:07;9.68;;;7.03;;
14933;SDS011;7560;51.364;12.384;2023-04-07T12:02:22;11.23;;;7.63;;
14933;SDS011;7560;51.364;12.384;2023-04-07T12:07:32;12.13;;;7.38;;
14933;SDS011;7560;51.364;12.384;2023-04-07T12:12:34;10.63;;;6.93;;
14933;SDS011;7560;51.364;12.384;2023-04-07T12:17:35;10.00;;;7.15;;
14933;SDS011;7560;51.364;12.384;2023-04-07T12:22:37;8.98;;;7.13;;
14933;SDS011;7560;51.364;12.384;2023-04-07T12:27:39;9.75;;;7.10;;
14933;SDS011;7560;51.364;12.384;2023-04-07T12:32:44;10.02;;;7.38;;
14933;SDS011;7560;51.364;12.384;2023-04-07T12:37:45;9.55;;;7.13;;
14933;SDS011;7560;51.364;12.384;2023-04-07T12:42:50;8.35;;;7.03;;
14933;SDS011;7560;51.364;12.384;2023-04-07T12:47:52;10.98;;;8.07;;
14933;SDS011;7560;51.364;12.384;2023-04-07T12:52:54;10.02;;;7.97;;
14933;SDS011;7560;51.364;12.384;2023-04-07T12:57:55;11.18;;;7.63;;
14933;SDS011;7560;51.364;12.384;2023-04-07T13:02:57;9.65;;;7.63;;
14933;SDS011;7560;51.364;12.384;2023-04-07T13:07:59;11.15;;;7.70;;
14933;SDS011;7560;51.364;12.384;2023-04-07T13:13:01;13.00;;;8.07;;
14933;SDS011;7560;51.364;12.384;2023-04-07T13:18:03;10.50;;;7.65;;
14933;SDS011;7560;51.364;12.384;2023-04-07T13:23:04;10.30;;;7.65;;
14933;SDS011;7560;51.364;12.384;2023-04-07T13:28:10;12.43;;;7.70;;
14933;SDS011;7560;51.364;12.384;2023-04-07T13:33:12;10.13;;;7.30;;
14933;SDS011;7560;51.364;12.384;2023-04-07T13:38:14;9.35;;;7.25;;
14933;SDS011;7560;51.364;12.384;2023-04-07T13:43:16;9.73;;;7.65;;
14933;SDS011;7560;51.364;12.384;2023-04-07T13:48:19;8.85;;;7.05;;
14933;SDS011;7560;51.364;12.384;2023-04-07T13:53:20;9.13;;;6.47;;
14933;SDS011;7560;51.364;12.384;2023-04-07T13:58:23;9.20;;;6.82;;
14933;SDS011;7560;51.364;12.384;2023-04-07T14:03:25;9.38;;;6.70;;
14933;SDS011;7560;51.364;12.384;2023-04-07T14:08:28;11.10;;;8.27;;
14933;SDS011;7560;51.364;12.384;2023-04-07T14:13:30;10.20;;;6.70;;
14933;SDS011;7560;51.364;12.384;2023-04-07T14:18:31;6.97;;;5.80;;
14933;SDS011;7560;51.364;12.384;2023-04-07T14:23:33;7.30;;;6.15;;
14933;SDS011;7560;51.364;12.384;2023-04-07T14:28:51;8.57;;;5.97;;
14933;SDS011;7560;51.364;12.384;2023-04-07T14:33:52;9.13;;;6.50;;
14933;SDS011;7560;51.364;12.384;2023-04-07T14:38:55;7.85;;;6.18;;
14933;SDS011;7560;51.364;12.384;2023-04-07T14:43:58;8.23;;;6.60;;
14933;SDS011;7560;51.364;12.384;2023-04-07T14:49:00;7.32;;;6.22;;
14933;SDS011;7560;51.364;12.384;2023-04-07T14:54:01;9.75;;;6.28;;
14933;SDS011;7560;51.364;12.384;2023-04-07T14:59:03;10.63;;;6.60;;
14933;SDS011;7560;51.364;12.384;2023-04-07T15:04:05;7.28;;;5.63;;
14933;SDS011;7560;51.364;12.384;2023-04-07T15:09:07;6.93;;;5.68;;
14933;SDS011;7560;51.364;12.384;2023-04-07T15:14:09;8.43;;;6.25;;
14933;SDS011;7560;51.364;12.384;2023-04-07T15:19:11;8.13;;;5.55;;
14933;SDS011;7560;51.364;12.384;2023-04-07T15:24:12;6.90;;;4.43;;
14933;SDS011;7560;51.364;12.384;2023-04-07T15:29:16;7.30;;;4.68;;
14933;SDS011;7560;51.364;12.384;2023-04-07T15:34:18;6.95;;;4.95;;
14933;SDS011;7560;51.364;12.384;2023-04-07T15:39:20;6.53;;;4.60;;
14933;SDS011;7560;51.364;12.384;2023-04-07T15:44:21;6.63;;;4.68;;
14933;SDS011;7560;51.364;12.384;2023-04-07T15:49:23;5.68;;;4.40;;
14933;SDS011;7560;51.364;12.384;2023-04-07T15:54:26;7.43;;;5.07;;
14933;SDS011;7560;51.364;12.384;2023-04-07T15:59:28;8.30;;;4.82;;
14933;SDS011;7560;51.364;12.384;2023-04-07T16:04:31;8.38;;;4.80;;
14933;SDS011;7560;51.364;12.384;2023-04-07T16:09:33;6.38;;;4.72;;
14933;SDS011;7560;51.364;12.384;2023-04-07T16:14:34;5.55;;;4.82;;
14933;SDS011;7560;51.364;12.384;2023-04-07T16:19:36;6.15;;;5.35;;
14933;SDS011;7560;51.364;12.384;2023-04-07T16:24:38;7.97;;;5.47;;
14933;SDS011;7560;51.364;12.384;2023-04-07T16:29:40;8.27;;;5.90;;
14933;SDS011;7560;51.364;12.384;2023-04-07T16:34:41;7.53;;;6.00;;
14933;SDS011;7560;51.364;12.384;2023-04-07T16:39:43;9.55;;;6.60;;
14933;SDS011;7560;51.364;12.384;2023-04-07T16:44:45;6.95;;;5.25;;
14933;SDS011;7560;51.364;12.384;2023-04-07T16:49:46;8.20;;;5.57;;
14933;SDS011;7560;51.364;12.384;2023-04-07T16:54:48;9.38;;;5.55;;
14933;SDS011;7560;51.364;12.384;2023-04-07T16:59:50;8.88;;;5.55;;
14933;SDS011;7560;51.364;12.384;2023-04-07T17:04:52;8.68;;;5.10;;
14933;SDS011;7560;51.364;12.384;2023-04-07T17:09:54;8.15;;;5.35;;
14933;SDS011;7560;51.364;12.384;2023-04-07T17:14:56;7.35;;;5.28;;
14933;SDS011;7560;51.364;12.384;2023-04-07T17:19:58;6.93;;;5.18;;
14933;SDS011;7560;51.364;12.384;2023-04-07T17:24:59;9.73;;;5.30;;
14933;SDS011;7560;51.364;12.384;2023-04-07T17:30:02;8.13;;;5.35;;
14933;SDS011;7560;51.364;12.384;2023-04-07T17:35:05;6.85;;;4.78;;
14933;SDS011;7560;51.364;12.384;2023-04-07T17:40:07;7.88;;;4.63;;
14933;SDS011;7560;51.364;12.384;2023-04-07T17:45:09;7.15;;;4.95;;
14933;SDS011;7560;51.364;12.384;2023-04-07T17:50:11;8.13;;;5.03;;
14933;SDS011;7560;51.364;12.384;2023-04-07T17:55:13;7.65;;;4.32;;
14933;SDS011;7560;51.364;12.384;2023-04-07T18:00:15;7.18;;;4.55;;
14933;SDS011;7560;51.364;12.384;2023-04-07T18:05:17;7.40;;;4.68;;
14933;SDS011;7560;51.364;12.384;2023-04-07T18:10:20;6.15;;;4.03;;
14933;SDS011;7560;51.364;12.384;2023-04-07T18:15:21;5.32;;;4.07;;
14933;SDS011;7560;51.364;12.384;2023-04-07T18:20:23;7.97;;;4.38;;
14933;SDS011;7560;51.364;12.384;2023-04-07T18:25:25;7.90;;;4.78;;
14933;SDS011;7560;51.364;12.384;2023-04-07T18:30:28;7.63;;;4.75;;
14933;SDS011;7560;51.364;12.384;2023-04-07T18:35:30;7.68;;;4.25;;
14933;SDS011;7560;51.364;12.384;2023-04-07T18:40:33;6.05;;;3.75;;
14933;SDS011;7560;51.364;12.384;2023-04-07T18:45:35;6.05;;;4.13;;
14933;SDS011;7560;51.364;12.384;2023-04-07T18:50:37;5.93;;;3.58;;
14933;SDS011;7560;51.364;12.384;2023-04-07T18:55:38;6.90;;;4.43;;
14933;SDS011;7560;51.364;12.384;2023-04-07T19:00:41;7.75;;;4.50;;
14933;SDS011;7560;51.364;12.384;2023-04-07T19:05:43;6.50;;;4.18;;
14933;SDS011;7560;51.364;12.384;2023-04-07T19:10:47;8.07;;;5.07;;
14933;SDS011;7560;51.364;12.384;2023-04-07T19:15:52;8.45;;;4.82;;
14933;SDS011;7560;51.364;12.384;2023-04-07T19:20:55;8.93;;;5.45;;
14933;SDS011;7560;51.364;12.384;2023-04-07T19:25:58;8.30;;;5.82;;
14933;SDS011;7560;51.364;12.384;2023-04-07T19:31:01;11.15;;;6.90;;
14933;SDS011;7560;51.364;12.384;2023-04-07T19:36:04;11.48;;;7.70;;
14933;SDS011;7560;51.364;12.384;2023-04-07T19:41:06;13.38;;;8.63;;
14933;SDS011;7560;51.364;12.384;2023-04-07T19:46:09;11.63;;;8.10;;
14933;SDS011;7560;51.364;12.384;2023-04-07T19:51:12;11.77;;;8.30;;
14933;SDS011;7560;51.364;12.384;2023-04-07T19:56:13;15.40;;;9.23;;
14933;SDS011;7560;51.364;12.384;2023-04-07T20:01:15;11.63;;;7.85;;
14933;SDS011;7560;51.364;12.384;2023-04-07T20:06:18;12.65;;;7.72;;
14933;SDS011;7560;51.364;12.384;2023-04-07T20:11:24;10.20;;;7.18;;
14933;SDS011;7560;51.364;12.384;2023-04-07T20:16:26;10.85;;;7.10;;
14933;SDS011;7560;51.364;12.384;2023-04-07T20:21:32;9.73;;;6.85;;
14933;SDS011;7560;51.364;12.384;2023-04-07T20:26:34;6.53;;;4.97;;
14933;SDS011;7560;51.364;12.384;2023-04-07T20:31:36;6.60;;;4.75;;
14933;SDS011;7560;51.364;12.384;2023-04-07T20:36:38;4.97;;;3.67;;
14933;SDS011;7560;51.364;12.384;2023-04-07T20:41:39;6.35;;;4.38;;
14933;SDS011;7560;51.364;12.384;2023-04-07T20:46:43;7.35;;;5.07;;
14933;SDS011;7560;51.364;12.384;2023-04-07T20:51:46;7.35;;;5.20;;
14933;SDS011;7560;51.364;12.384;2023-04-07T20:56:48;6.80;;;5.13;;
14933;SDS011;7560;51.364;12.384;2023-04-07T21:01:50;8.07;;;5.68;;
14933;SDS011;7560;51.364;12.384;2023-04-07T21:06:52;8.25;;;5.65;;
14933;SDS011;7560;51.364;12.384;2023-04-07T21:11:53;9.15;;;6.15;;
14933;SDS011;7560;51.364;12.384;2023-04-07T21:16:55;8.32;;;5.70;;
14933;SDS011;7560;51.364;12.384;2023-04-07T21:21:57;7.20;;;4.93;;
14933;SDS011;7560;51.364;12.384;2023-04-07T21:27:01;7.50;;;5.47;;
14933;SDS011;7560;51.364;12.384;2023-04-07T21:32:02;8.07;;;5.55;;
14933;SDS011;7560;51.364;12.384;2023-04-07T21:37:06;8.40;;;5.90;;
14933;SDS011;7560;51.364;12.384;2023-04-07T21:42:08;8.63;;;6.07;;
14933;SDS011;7560;51.364;12.384;2023-04-07T21:47:09;8.82;;;5.93;;
14933;SDS011;7560;51.364;12.384;2023-04-07T21:52:11;8.30;;;5.70;;
14933;SDS011;7560;51.364;12.384;2023-04-07T21:57:13;8.02;;;5.70;;
14933;SDS011;7560;51.364;12.384;2023-04-07T22:02:15;6.93;;;5.30;;
14933;SDS011;7560;51.364;12.384;2023-04-07T22:07:16;5.10;;;4.15;;
14933;SDS011;7560;51.364;12.384;2023-04-07T22:12:18;6.30;;;4.93;;
14933;SDS011;7560;51.364;12.384;2023-04-07T22:17:20;4.78;;;3.90;;
14933;SDS011;7560;51.364;12.384;2023-04-07T22:22:22;5.10;;;3.60;;
14933;SDS011;7560;51.364;12.384;2023-04-07T22:27:23;4.68;;;3.70;;
14933;SDS011;7560;51.364;12.384;2023-04-07T22:32:26;7.65;;;4.15;;
14933;SDS011;7560;51.364;12.384;2023-04-07T22:37:28;5.18;;;4.00;;
14933;SDS011;7560;51.364;12.384;2023-04-07T22:42:29;5.80;;;4.18;;
14933;SDS011;7560;51.364;12.384;2023-04-07T22:47:31;6.18;;;3.63;;
14933;SDS011;7560;51.364;12.384;2023-04-07T22:52:33;5.88;;;3.92;;
14933;SDS011;7560;51.364;12.384;2023-04-07T22:57:34;5.88;;;4.05;;
14933;SDS011;7560;51.364;12.384;2023-04-07T23:02:36;5.93;;;4.03;;
14933;SDS011;7560;51.364;12.384;2023-04-07T23:07:39;6.10;;;4.25;;
14933;SDS011;7560;51.364;12.384;2023-04-07T23:12:41;6.13;;;4.68;;
14933;SDS011;7560;51.364;12.384;2023-04-07T23:17:42;6.07;;;4.53;;
14933;SDS011;7560;51.364;12.384;2023-04-07T23:22:44;6.50;;;4.50;;
14933;SDS011;7560;51.364;12.384;2023-04-07T23:27:46;7.68;;;5.07;;
14933;SDS011;7560;51.364;12.384;2023-04-07T23:32:48;6.20;;;4.47;;
14933;SDS011;7560;51.364;12.384;2023-04-07T23:37:50;7.50;;;5.00;;
14933;SDS011;7560;51.364;12.384;2023-04-07T23:42:51;7.78;;;4.60;;
14933;SDS011;7560;51.364;12.384;2023-04-07T23:47:53;6.25;;;4.53;;
14933;SDS011;7560;51.364;12.384;2023-04-07T23:52:55;5.88;;;4.47;;
14933;SDS011;7560;51.364;12.384;2023-04-07T23:57:57;5.93;;;4.35;;
